Time;durP1;ratioP1;P1;durP2;ratioP2;P2;SDS_P1;SDS_P2;PMS_P1;PMS_P2;Temp;Humidity;BMP_temperature;BMP_pressure;BME280_temperature;BME280_humidity;BME280_pressure;Samples;Min_cycle;Max_cycle;Signal;HPM_P1;HPM_P2
2024/02/26 00:02:15;;;;;;;9.88;3.78;;;6.30;99.90;;;;;;5108558;28;20028;-47
2024/02/26 00:04:41;;;;;;;5.03;3.13;;;6.20;99.90;;;;;;5108589;28;20020;-45
2024/02/26 00:07:06;;;;;;;11.45;3.47;;;6.20;99.90;;;;;;5108583;28;20043;-46
2024/02/26 00:09:35;;;;;;;7.13;3.40;;;6.30;99.90;;;;;;5108327;28;20239;-47
2024/02/26 00:12:04;;;;;;;9.45;3.40;;;6.30;99.90;;;;;;5108374;28;20030;-48
2024/02/26 00:14:30;;;;;;;6.68;4.13;;;6.30;99.90;;;;;;5107798;28;20066;-46
2024/02/26 00:16:56;;;;;;;10.38;3.65;;;6.20;99.90;;;;;;5107345;28;20035;-46
2024/02/26 00:19:22;;;;;;;11.77;4.20;;;6.20;99.90;;;;;;5108217;28;20028;-46
2024/02/26 00:21:47;;;;;;;7.57;3.35;;;6.20;99.90;;;;;;5108070;28;20040;-46
2024/02/26 00:24:13;;;;;;;7.05;3.03;;;6.20;99.90;;;;;;5108039;28;20056;-45
2024/02/26 00:26:39;;;;;;;8.25;3.65;;;6.20;99.90;;;;;;5107965;28;20028;-45
2024/02/26 00:29:04;;;;;;;9.35;3.40;;;6.10;99.90;;;;;;5108042;28;20035;-44
2024/02/26 00:31:30;;;;;;;10.07;3.25;;;6.10;99.90;;;;;;5107798;28;20031;-46
2024/02/26 00:33:56;;;;;;;6.63;3.25;;;6.10;99.90;;;;;;5107880;28;20080;-46
2024/02/26 00:36:21;;;;;;;7.78;3.15;;;6.10;99.90;;;;;;5108040;28;20032;-45
2024/02/26 00:38:50;;;;;;;10.10;3.55;;;6.10;99.90;;;;;;5107522;28;20034;-45
2024/02/26 00:41:17;;;;;;;9.90;3.30;;;6.10;99.90;;;;;;5107638;28;20020;-45
2024/02/26 00:43:42;;;;;;;10.57;3.22;;;6.10;99.90;;;;;;5107629;28;20099;-45
2024/02/26 00:46:08;;;;;;;10.65;3.60;;;6.10;99.90;;;;;;5107293;28;20027;-45
2024/02/26 00:48:34;;;;;;;6.60;2.97;;;6.10;99.90;;;;;;5107604;28;20024;-45
2024/02/26 00:50:59;;;;;;;10.50;3.55;;;6.20;99.90;;;;;;5107543;28;20032;-45
2024/02/26 00:53:25;;;;;;;9.85;3.17;;;6.20;99.90;;;;;;5107548;28;20024;-48
2024/02/26 00:55:51;;;;;;;8.85;3.60;;;6.10;99.90;;;;;;5106685;28;20304;-46
2024/02/26 00:58:16;;;;;;;10.50;3.92;;;6.10;99.90;;;;;;5107470;28;20032;-46
2024/02/26 01:00:42;;;;;;;10.98;3.40;;;6.10;99.90;;;;;;5107019;28;20039;-48
2024/02/26 01:03:09;;;;;;;8.02;2.90;;;6.10;99.90;;;;;;5107503;28;20137;-45
2024/02/26 01:05:35;;;;;;;6.70;2.90;;;6.10;99.90;;;;;;5107333;28;20035;-46
2024/02/26 01:08:01;;;;;;;11.85;3.80;;;6.10;99.90;;;;;;5107101;28;20073;-46
2024/02/26 01:10:28;;;;;;;9.60;2.92;;;6.10;99.90;;;;;;5107077;28;20304;-45
2024/02/26 01:12:53;;;;;;;10.85;3.30;;;6.00;99.90;;;;;;5107120;28;20091;-45
2024/02/26 01:15:21;;;;;;;6.38;3.00;;;6.00;99.90;;;;;;5107202;28;20327;-49
2024/02/26 01:17:47;;;;;;;8.57;2.72;;;6.00;99.90;;;;;;5106583;28;20173;-45
2024/02/26 01:20:13;;;;;;;7.07;2.60;;;6.00;99.90;;;;;;5107136;28;20048;-46
2024/02/26 01:22:40;;;;;;;12.23;3.15;;;6.00;99.90;;;;;;5106777;28;20248;-46
2024/02/26 01:25:07;;;;;;;7.47;2.92;;;6.00;99.90;;;;;;5105998;28;20039;-45
2024/02/26 01:27:33;;;;;;;9.38;2.88;;;6.00;99.90;;;;;;5106861;28;20299;-48
2024/02/26 01:29:58;;;;;;;9.05;2.90;;;6.00;99.90;;;;;;5106352;28;20036;-46
2024/02/26 01:32:24;;;;;;;7.53;3.03;;;6.00;99.90;;;;;;5106913;28;20293;-47
2024/02/26 01:34:50;;;;;;;7.65;3.22;;;6.00;99.90;;;;;;5107109;28;20024;-45
2024/02/26 01:37:15;;;;;;;9.07;2.88;;;6.00;99.90;;;;;;5106560;28;20258;-45
2024/02/26 01:39:41;;;;;;;9.95;2.75;;;6.00;99.90;;;;;;5106504;28;20040;-46
2024/02/26 01:42:07;;;;;;;11.23;2.95;;;6.00;99.90;;;;;;5106594;28;20092;-45
2024/02/26 01:44:33;;;;;;;6.80;2.65;;;6.00;99.90;;;;;;5105754;28;20036;-47
2024/02/26 01:46:59;;;;;;;9.20;3.35;;;6.00;99.90;;;;;;5106338;28;20032;-47
2024/02/26 01:49:24;;;;;;;7.93;2.53;;;6.00;99.90;;;;;;5105187;28;20077;-45
2024/02/26 01:51:50;;;;;;;8.27;2.92;;;6.00;99.90;;;;;;5105414;28;20016;-46
2024/02/26 01:54:16;;;;;;;8.65;2.75;;;6.00;99.90;;;;;;5105588;28;20166;-47
2024/02/26 01:56:41;;;;;;;8.30;3.00;;;6.00;99.90;;;;;;5106423;28;20020;-46
2024/02/26 01:59:08;;;;;;;10.85;3.00;;;6.00;99.90;;;;;;5088466;28;20099;-46
2024/02/26 02:01:33;;;;;;;6.95;2.88;;;6.00;99.90;;;;;;5106006;28;20043;-45
2024/02/26 02:03:59;;;;;;;8.15;3.00;;;6.00;99.90;;;;;;5105177;28;20181;-46
2024/02/26 02:06:26;;;;;;;7.03;2.83;;;6.00;99.90;;;;;;5105888;28;20202;-46
2024/02/26 02:08:52;;;;;;;7.30;2.83;;;6.00;99.90;;;;;;5106147;28;20039;-46
2024/02/26 02:11:18;;;;;;;7.05;2.95;;;6.00;99.90;;;;;;5105134;28;20030;-48
2024/02/26 02:13:43;;;;;;;6.03;2.67;;;6.00;99.90;;;;;;5106067;28;20048;-46
2024/02/26 02:16:09;;;;;;;5.45;2.67;;;6.00;99.90;;;;;;5106135;28;20173;-45
2024/02/26 02:18:35;;;;;;;7.78;2.85;;;6.00;99.90;;;;;;5105609;28;20083;-47
2024/02/26 02:21:01;;;;;;;8.38;2.92;;;6.00;99.90;;;;;;5106051;28;20169;-46
2024/02/26 02:23:27;;;;;;;7.07;2.90;;;6.00;99.90;;;;;;5105818;28;20059;-46
2024/02/26 02:25:52;;;;;;;8.13;3.10;;;6.00;99.90;;;;;;5105936;28;20020;-47
2024/02/26 02:28:18;;;;;;;7.28;3.15;;;5.90;99.90;;;;;;5106165;28;20035;-46
2024/02/26 02:30:44;;;;;;;7.22;2.80;;;5.90;99.90;;;;;;5105916;28;20032;-45
2024/02/26 02:33:11;;;;;;;7.55;2.72;;;5.90;99.90;;;;;;5106075;28;20035;-46
2024/02/26 02:35:37;;;;;;;6.05;2.80;;;5.90;99.90;;;;;;5105752;28;20024;-48
2024/02/26 02:38:03;;;;;;;9.02;3.28;;;5.90;99.90;;;;;;5105442;28;20028;-45
2024/02/26 02:40:28;;;;;;;9.23;3.00;;;5.90;99.90;;;;;;5105806;28;20028;-47
2024/02/26 02:42:54;;;;;;;7.40;3.47;;;5.90;99.90;;;;;;5105593;28;20028;-45
2024/02/26 02:45:20;;;;;;;10.50;3.25;;;5.90;99.90;;;;;;5105605;28;20042;-46
2024/02/26 02:47:45;;;;;;;7.07;2.90;;;5.90;99.90;;;;;;5105764;28;20287;-47
2024/02/26 02:50:11;;;;;;;8.50;3.03;;;5.80;99.90;;;;;;5105908;28;20020;-46
2024/02/26 02:52:36;;;;;;;7.75;2.72;;;5.80;99.90;;;;;;5105271;28;20099;-45
2024/02/26 02:55:02;;;;;;;11.00;3.00;;;5.80;99.90;;;;;;5105864;28;20277;-46
2024/02/26 02:57:28;;;;;;;6.72;2.53;;;5.80;99.90;;;;;;5105712;28;20023;-46
2024/02/26 02:59:53;;;;;;;9.98;3.67;;;5.80;99.90;;;;;;5104790;28;20128;-45
2024/02/26 03:02:19;;;;;;;9.48;2.47;;;5.80;99.90;;;;;;5105687;28;20031;-47
2024/02/26 03:04:45;;;;;;;7.45;2.80;;;5.80;99.90;;;;;;5105766;28;20170;-46
2024/02/26 03:07:10;;;;;;;6.70;2.40;;;5.80;99.90;;;;;;5087572;28;20032;-46
2024/02/26 03:09:36;;;;;;;5.60;2.80;;;5.80;99.90;;;;;;5105405;28;20216;-46
2024/02/26 03:12:02;;;;;;;7.35;2.40;;;5.80;99.90;;;;;;5105750;28;20028;-45
2024/02/26 03:14:27;;;;;;;5.32;2.47;;;5.80;99.90;;;;;;5104564;28;20085;-46
2024/02/26 03:16:54;;;;;;;8.80;2.70;;;5.70;99.90;;;;;;5105464;28;20083;-46
2024/02/26 03:19:20;;;;;;;6.88;2.60;;;5.70;99.90;;;;;;5105319;28;20091;-47
2024/02/26 03:21:46;;;;;;;9.45;2.83;;;5.70;99.90;;;;;;5105363;28;20039;-48
2024/02/26 03:24:12;;;;;;;7.78;2.97;;;5.70;99.90;;;;;;5104875;28;20059;-45
2024/02/26 03:26:38;;;;;;;8.82;3.55;;;5.70;99.90;;;;;;5105470;28;20024;-46
2024/02/26 03:29:03;;;;;;;5.85;2.75;;;5.70;99.90;;;;;;5105284;28;20044;-46
2024/02/26 03:31:29;;;;;;;10.00;2.63;;;5.70;99.90;;;;;;5107110;28;20096;-45
2024/02/26 03:33:55;;;;;;;8.75;2.72;;;5.60;99.90;;;;;;5109124;28;20039;-46
2024/02/26 03:36:21;;;;;;;6.82;2.88;;;5.70;99.90;;;;;;5109238;28;20058;-46
2024/02/26 03:38:47;;;;;;;7.03;2.70;;;5.70;99.90;;;;;;5108625;28;20348;-47
2024/02/26 03:41:13;;;;;;;6.93;2.50;;;5.60;99.90;;;;;;5090859;28;20039;-45
2024/02/26 03:43:39;;;;;;;4.70;2.63;;;5.60;99.90;;;;;;5108831;28;20031;-45
2024/02/26 03:46:08;;;;;;;4.70;2.63;;;5.70;99.90;;;;;;5108827;28;20195;-48
2024/02/26 03:48:34;;;;;;;7.70;2.70;;;5.70;99.90;;;;;;5108858;28;20054;-46
2024/02/26 03:51:00;;;;;;;8.40;2.67;;;5.70;99.90;;;;;;5108745;28;20028;-48
2024/02/26 03:53:26;;;;;;;7.97;3.40;;;5.70;99.90;;;;;;5108588;28;20028;-45
2024/02/26 03:55:52;;;;;;;11.45;3.58;;;5.70;99.90;;;;;;5107813;28;20189;-46
2024/02/26 03:58:18;;;;;;;6.50;3.30;;;5.70;99.90;;;;;;5108813;28;20027;-45
2024/02/26 04:00:44;;;;;;;8.65;3.50;;;5.70;99.90;;;;;;5108193;28;20039;-46
2024/02/26 04:03:09;;;;;;;8.27;3.55;;;5.80;99.90;;;;;;5108379;28;20087;-46
2024/02/26 04:05:35;;;;;;;9.15;4.00;;;5.80;99.90;;;;;;5108355;28;20097;-45
2024/02/26 04:08:01;;;;;;;10.15;3.45;;;5.80;99.90;;;;;;5108445;28;20092;-46
2024/02/26 04:10:26;;;;;;;9.98;4.03;;;5.80;99.90;;;;;;5108397;28;20236;-45
2024/02/26 04:12:52;;;;;;;9.05;3.70;;;5.80;99.90;;;;;;5107984;28;20043;-46
2024/02/26 04:15:18;;;;;;;8.38;5.05;;;5.80;99.90;;;;;;5108122;28;20149;-46
2024/02/26 04:17:44;;;;;;;10.13;4.40;;;5.70;99.90;;;;;;5108375;28;20050;-46
2024/02/26 04:20:14;;;;;;;9.82;3.70;;;5.70;99.90;;;;;;5108336;28;20056;-46
2024/02/26 04:22:39;;;;;;;6.60;3.65;;;5.60;99.90;;;;;;5108044;28;20377;-45
2024/02/26 04:25:05;;;;;;;9.88;3.40;;;5.60;99.90;;;;;;5108137;28;20035;-46
2024/02/26 04:27:31;;;;;;;9.73;3.50;;;5.60;99.90;;;;;;5108110;28;20085;-46
2024/02/26 04:29:56;;;;;;;9.30;3.45;;;5.50;99.90;;;;;;5107936;28;20026;-47
2024/02/26 04:32:22;;;;;;;14.27;5.85;;;5.50;99.90;;;;;;5108093;28;20051;-46
2024/02/26 04:34:48;;;;;;;13.55;4.47;;;5.50;99.90;;;;;;5107607;28;20055;-47
2024/02/26 04:37:13;;;;;;;9.05;4.25;;;5.50;99.90;;;;;;5107719;28;20083;-47
2024/02/26 04:39:39;;;;;;;8.45;4.18;;;5.40;99.90;;;;;;5107790;28;20073;-46
2024/02/26 04:42:05;;;;;;;10.00;3.72;;;5.40;99.90;;;;;;5107382;28;20036;-47
2024/02/26 04:44:30;;;;;;;7.97;3.67;;;5.40;99.90;;;;;;5107746;28;20028;-47
2024/02/26 04:46:56;;;;;;;13.13;4.28;;;5.40;99.90;;;;;;5107900;28;20220;-46
2024/02/26 04:49:22;;;;;;;8.35;4.00;;;5.40;99.90;;;;;;5107579;28;20036;-46
2024/02/26 04:51:48;;;;;;;9.57;4.40;;;5.50;99.90;;;;;;5107538;28;20186;-45
2024/02/26 04:54:13;;;;;;;10.98;4.65;;;5.50;99.90;;;;;;5107642;28;20028;-45
2024/02/26 04:56:39;;;;;;;9.93;4.75;;;5.50;99.90;;;;;;5107611;28;20027;-45
2024/02/26 04:59:05;;;;;;;10.70;5.55;;;5.50;99.90;;;;;;5107424;28;20185;-47
2024/02/26 05:05:12;;;;;;;17.30;6.72;;;5.50;99.90;;;;;;5107211;28;20069;-46
2024/02/26 05:07:45;;;;;;;15.68;6.50;;;5.50;99.90;;;;;;5107689;28;20266;-46
2024/02/26 05:10:11;;;;;;;25.45;8.07;;;5.50;99.90;;;;;;5107202;28;20292;-46
2024/02/26 05:12:36;;;;;;;17.40;7.53;;;5.50;99.90;;;;;;5106257;28;20032;-46
2024/02/26 05:15:03;;;;;;;13.93;6.90;;;5.60;99.90;;;;;;5106861;28;20030;-46
2024/02/26 05:17:28;;;;;;;14.27;6.97;;;5.60;99.90;;;;;;5106990;28;20028;-47
2024/02/26 05:19:54;;;;;;;13.10;7.07;;;5.60;99.90;;;;;;5107025;28;20028;-45
2024/02/26 05:22:20;;;;;;;15.02;5.90;;;5.60;99.90;;;;;;5106869;28;20048;-46
2024/02/26 05:24:45;;;;;;;12.30;6.07;;;5.60;99.90;;;;;;5107095;28;20268;-46
2024/02/26 05:27:12;;;;;;;14.13;6.50;;;5.50;99.90;;;;;;5106987;28;20032;-46
2024/02/26 05:29:38;;;;;;;11.77;5.55;;;5.50;99.90;;;;;;5106713;28;20105;-46
2024/02/26 05:32:05;;;;;;;15.48;5.70;;;5.50;99.90;;;;;;5106925;28;20028;-46
2024/02/26 05:34:30;;;;;;;15.23;5.80;;;5.50;99.90;;;;;;5106811;28;20016;-46
2024/02/26 05:36:56;;;;;;;10.10;6.07;;;5.50;99.90;;;;;;5106698;28;20024;-47
2024/02/26 05:39:22;;;;;;;17.48;6.85;;;5.40;99.90;;;;;;5105811;28;20038;-47
2024/02/26 05:41:49;;;;;;;11.52;5.47;;;5.40;99.90;;;;;;5106668;28;20059;-46
2024/02/26 05:44:15;;;;;;;10.07;5.65;;;5.40;99.90;;;;;;5106626;28;20036;-45
2024/02/26 05:46:42;;;;;;;10.48;5.43;;;5.40;99.90;;;;;;5106541;28;20027;-46
2024/02/26 05:49:07;;;;;;;13.20;5.65;;;5.40;99.90;;;;;;5105587;28;20304;-47
2024/02/26 05:51:33;;;;;;;11.15;5.20;;;5.40;99.90;;;;;;5106423;28;20032;-46
2024/02/26 05:53:58;;;;;;;14.93;6.10;;;5.40;99.90;;;;;;5105686;28;20165;-46
2024/02/26 05:56:24;;;;;;;11.10;4.70;;;5.50;99.90;;;;;;5106478;28;20043;-46
2024/02/26 05:58:50;;;;;;;10.63;4.70;;;5.60;99.90;;;;;;5106262;28;20028;-45
2024/02/26 06:01:19;;;;;;;10.75;3.97;;;5.60;99.90;;;;;;5106507;28;20087;-46
2024/02/26 06:03:45;;;;;;;11.32;3.92;;;5.60;99.90;;;;;;5106352;28;20077;-46
2024/02/26 06:06:11;;;;;;;12.70;4.13;;;5.60;99.90;;;;;;5105964;28;20243;-46
2024/02/26 06:08:36;;;;;;;13.60;4.22;;;5.60;99.90;;;;;;5106188;28;20023;-46
2024/02/26 06:11:06;;;;;;;7.82;4.03;;;5.60;99.90;;;;;;5106173;28;20038;-45
2024/02/26 06:13:32;;;;;;;;;;;5.60;99.90;;;;;;5106457;28;20024;-46
2024/02/26 06:15:58;;;;;;;10.15;4.07;;;5.60;99.90;;;;;;5106046;28;19957;-47
2024/02/26 06:18:23;;;;;;;8.05;3.20;;;5.50;99.90;;;;;;5105109;28;20133;-46
2024/02/26 06:20:49;;;;;;;9.45;3.47;;;5.50;99.90;;;;;;5105669;28;20047;-45
2024/02/26 06:23:15;;;;;;;9.35;3.33;;;5.50;99.90;;;;;;5105874;28;20059;-47
2024/02/26 06:25:42;;;;;;;12.18;3.88;;;5.50;99.90;;;;;;5105836;28;20020;-45
2024/02/26 06:28:08;;;;;;;8.77;3.40;;;5.50;99.90;;;;;;5106082;28;20042;-45
2024/02/26 06:30:34;;;;;;;9.43;3.25;;;5.50;99.90;;;;;;5087851;28;20062;-45
2024/02/26 06:32:59;;;;;;;11.70;3.33;;;5.50;99.90;;;;;;5105641;28;20073;-47
2024/02/26 06:35:25;;;;;;;10.43;3.10;;;5.50;99.90;;;;;;5105636;28;20066;-46
2024/02/26 06:37:52;;;;;;;7.20;2.88;;;5.40;99.90;;;;;;5105586;28;20028;-46
2024/02/26 06:40:19;;;;;;;7.50;2.65;;;5.50;99.90;;;;;;5105812;28;20051;-46
2024/02/26 06:42:44;;;;;;;10.20;3.08;;;5.40;99.90;;;;;;5105722;28;20032;-46
2024/02/26 06:45:10;;;;;;;10.25;2.95;;;5.40;99.90;;;;;;5105686;28;20027;-46
2024/02/26 06:47:36;;;;;;;10.18;3.30;;;5.40;99.90;;;;;;5105282;28;20032;-46
2024/02/26 06:50:02;;;;;;;12.98;2.45;;;5.40;99.90;;;;;;5105625;28;20040;-45
2024/02/26 06:52:27;;;;;;;7.35;2.85;;;5.30;99.90;;;;;;5105529;28;20089;-46
2024/02/26 06:54:53;;;;;;;7.00;2.78;;;5.30;99.90;;;;;;5087492;28;20073;-45
2024/02/26 06:57:20;;;;;;;8.63;2.83;;;5.30;99.90;;;;;;5105434;28;20032;-46
2024/02/26 06:59:47;;;;;;;8.73;2.30;;;5.30;99.90;;;;;;5105584;28;20027;-45
2024/02/26 07:02:13;;;;;;;4.35;2.50;;;5.30;99.90;;;;;;5105551;28;20087;-45
2024/02/26 07:04:39;;;;;;;5.80;2.65;;;5.30;99.90;;;;;;5105871;28;20185;-46
2024/02/26 07:07:04;;;;;;;8.15;2.50;;;5.30;99.90;;;;;;5109556;28;20048;-46
2024/02/26 07:09:30;;;;;;;9.68;2.90;;;5.40;99.90;;;;;;5109330;28;20030;-46
2024/02/26 07:11:56;;;;;;;9.35;2.78;;;5.40;99.90;;;;;;5110021;28;20035;-45
2024/02/26 07:14:21;;;;;;;6.85;2.63;;;5.40;99.90;;;;;;5109425;28;20039;-46
2024/02/26 07:16:47;;;;;;;11.73;3.08;;;5.40;99.90;;;;;;5109462;28;20278;-44
2024/02/26 07:19:13;;;;;;;11.85;3.03;;;5.40;99.90;;;;;;5109052;28;20091;-46
2024/02/26 07:21:39;;;;;;;12.52;2.88;;;5.40;99.90;;;;;;5109452;28;20032;-46
2024/02/26 07:24:05;;;;;;;7.07;2.80;;;5.30;99.90;;;;;;5109180;28;20335;-46
2024/02/26 07:26:31;;;;;;;9.65;2.85;;;5.30;99.90;;;;;;5109135;28;20036;-46
2024/02/26 07:28:57;;;;;;;12.07;3.95;;;5.40;99.90;;;;;;5108722;28;20032;-47
2024/02/26 07:31:23;;;;;;;11.60;3.67;;;5.40;99.90;;;;;;5108909;28;20087;-46
2024/02/26 07:33:48;;;;;;;7.38;2.97;;;5.50;99.90;;;;;;5109004;28;20297;-45
2024/02/26 07:36:15;;;;;;;8.13;2.25;;;5.50;99.90;;;;;;5108847;28;20066;-45
2024/02/26 07:38:41;;;;;;;6.97;2.20;;;5.50;99.90;;;;;;5108980;28;20269;-45
2024/02/26 07:41:06;;;;;;;5.72;1.77;;;5.50;99.90;;;;;;5108496;28;20032;-46
2024/02/26 07:43:32;;;;;;;8.77;2.13;;;5.50;99.90;;;;;;5108329;28;20016;-45
2024/02/26 07:45:58;;;;;;;8.38;2.10;;;5.50;99.90;;;;;;5108741;28;20273;-45
2024/02/26 07:48:24;;;;;;;4.93;1.88;;;5.50;99.90;;;;;;5107607;28;20031;-46
2024/02/26 07:50:49;;;;;;;10.13;2.83;;;5.60;99.90;;;;;;5108044;28;20128;-46
2024/02/26 07:53:15;;;;;;;5.50;1.90;;;5.60;99.90;;;;;;5108572;28;20036;-46
2024/02/26 07:55:41;;;;;;;10.07;3.63;;;5.60;99.90;;;;;;5108367;28;20085;-48
2024/02/26 07:58:06;;;;;;;10.20;4.10;;;5.60;99.90;;;;;;5108579;28;20027;-45
2024/02/26 08:00:32;;;;;;;14.88;5.45;;;5.70;99.90;;;;;;5108540;28;20039;-46
2024/02/26 08:02:58;;;;;;;10.02;3.58;;;5.90;99.90;;;;;;5090387;28;20024;-46
2024/02/26 08:05:24;;;;;;;12.77;4.60;;;6.40;99.90;;;;;;5108072;28;20369;-46
2024/02/26 08:07:50;;;;;;;8.65;4.00;;;7.10;99.90;;;;;;5108114;28;20040;-47
2024/02/26 08:10:16;;;;;;;7.03;3.08;;;7.20;99.90;;;;;;5108085;28;20039;-46
2024/02/26 08:12:41;;;;;;;15.57;5.22;;;7.40;99.90;;;;;;5108050;28;21205;-47
2024/02/26 08:15:08;;;;;;;8.23;3.38;;;7.50;99.90;;;;;;5108035;28;20020;-48
2024/02/26 08:17:33;;;;;;;4.63;2.15;;;8.30;99.90;;;;;;5107019;28;20035;-47
2024/02/26 08:20:00;;;;;;;6.47;2.40;;;8.90;99.90;;;;;;5107866;28;20068;-47
2024/02/26 08:22:25;;;;;;;6.88;2.05;;;9.40;99.90;;;;;;5107681;28;20060;-45
2024/02/26 08:24:51;;;;;;;4.43;1.73;;;9.80;99.90;;;;;;5107938;28;20077;-49
2024/02/26 08:27:17;;;;;;;7.15;3.17;;;10.10;99.90;;;;;;5107837;28;20032;-48
2024/02/26 08:29:43;;;;;;;3.63;1.40;;;10.10;99.90;;;;;;5107307;28;20036;-49
2024/02/26 08:32:08;;;;;;;7.68;1.80;;;10.30;99.90;;;;;;5107757;28;20034;-48
2024/02/26 08:34:34;;;;;;;5.50;2.10;;;10.60;99.90;;;;;;5107683;28;20020;-47
2024/02/26 08:37:00;;;;;;;5.85;1.50;;;10.70;99.90;;;;;;5107489;28;20080;-48
2024/02/26 08:39:25;;;;;;;5.03;1.50;;;10.90;99.90;;;;;;5107400;28;20034;-48
2024/02/26 08:41:51;;;;;;;8.35;2.22;;;11.00;99.90;;;;;;5107293;28;20032;-50
2024/02/26 08:44:17;;;;;;;5.45;1.77;;;11.30;99.90;;;;;;5106601;28;20044;-46
2024/02/26 08:46:43;;;;;;;6.05;1.63;;;11.60;99.90;;;;;;5107236;28;20087;-50
2024/02/26 08:49:08;;;;;;;3.83;1.40;;;11.80;99.90;;;;;;5107191;28;20047;-48
2024/02/26 08:51:34;;;;;;;3.75;1.45;;;12.20;99.90;;;;;;5106955;28;20031;-47
2024/02/26 08:53:59;;;;;;;3.78;1.48;;;12.40;99.90;;;;;;5107220;28;20083;-48
2024/02/26 08:56:25;;;;;;;3.28;1.25;;;12.70;99.90;;;;;;5088935;28;20178;-46
2024/02/26 08:58:53;;;;;;;8.07;1.85;;;12.90;99.90;;;;;;5106724;28;20036;-48
2024/02/26 09:01:19;;;;;;;3.65;1.42;;;13.00;99.90;;;;;;5106719;28;20274;-47
2024/02/26 09:03:45;;;;;;;5.65;1.55;;;13.00;99.90;;;;;;5106880;28;20024;-48
2024/02/26 09:06:11;;;;;;;3.20;1.25;;;12.90;99.90;;;;;;5107089;28;20234;-49
2024/02/26 09:08:37;;;;;;;3.92;1.20;;;13.10;99.90;;;;;;5106946;28;20034;-49
2024/02/26 09:11:03;;;;;;;4.97;2.20;;;13.20;99.90;;;;;;5106892;28;20039;-50
2024/02/26 09:13:29;;;;;;;3.15;1.15;;;13.40;99.90;;;;;;5106732;28;20036;-47
2024/02/26 09:15:55;;;;;;;5.45;1.48;;;13.50;99.90;;;;;;5106415;28;20024;-47
2024/02/26 09:18:20;;;;;;;4.47;1.08;;;13.50;99.90;;;;;;5107045;28;20023;-50
2024/02/26 09:20:46;;;;;;;7.53;1.73;;;13.60;99.90;;;;;;5106777;28;20043;-47
2024/02/26 09:23:12;;;;;;;3.60;1.83;;;13.70;99.90;;;;;;5106355;28;20048;-48
2024/02/26 09:25:37;;;;;;;4.93;1.73;;;13.90;99.90;;;;;;5106552;28;20020;-46
2024/02/26 09:28:04;;;;;;;5.65;1.13;;;13.90;99.90;;;;;;5106717;28;20032;-48
2024/02/26 09:30:29;;;;;;;2.35;1.00;;;13.90;99.90;;;;;;5106516;28;20205;-45
2024/02/26 09:32:55;;;;;;;6.45;1.63;;;13.80;99.90;;;;;;5106541;28;20079;-45
2024/02/26 09:35:21;;;;;;;8.73;2.42;;;12.60;99.90;;;;;;5106318;28;20028;-48
2024/02/26 09:37:48;;;;;;;4.70;1.52;;;11.40;99.90;;;;;;5106419;28;20058;-49
2024/02/26 09:40:14;;;;;;;4.80;1.75;;;10.60;99.90;;;;;;5106114;28;20103;-49
2024/02/26 09:42:44;;;;;;;3.53;1.40;;;10.10;99.90;;;;;;5106577;28;20326;-48
2024/02/26 09:45:28;;;;;;;4.18;1.20;;;9.90;99.90;;;;;;5106010;28;20270;-47
2024/02/26 09:47:55;;;;;;;4.68;1.40;;;11.30;99.90;;;;;;5087916;28;20040;-48
2024/02/26 09:50:22;;;;;;;3.50;1.27;;;12.50;99.90;;;;;;5106088;28;20115;-51
2024/02/26 09:52:48;;;;;;;1.98;1.00;;;13.10;99.90;;;;;;5105817;28;20274;-51
2024/02/26 09:55:14;;;;;;;2.45;1.58;;;13.10;99.90;;;;;;5106106;28;20056;-51
2024/02/26 09:57:44;;;;;;;3.03;0.98;;;13.10;99.90;;;;;;5104945;28;20035;-49
2024/02/26 10:00:11;;;;;;;1.85;1.23;;;13.10;99.90;;;;;;5105080;28;20027;-50
2024/02/26 10:02:36;;;;;;;3.35;1.15;;;13.60;99.90;;;;;;5106033;28;20290;-49
2024/02/26 10:05:05;;;;;;;4.00;1.42;;;14.10;99.90;;;;;;5088018;28;20035;-49
2024/02/26 10:07:30;;;;;;;4.03;1.25;;;14.20;99.90;;;;;;5105966;28;20069;-51
2024/02/26 10:09:56;;;;;;;3.00;1.40;;;13.90;99.90;;;;;;5106002;28;20028;-52
2024/02/26 10:12:22;;;;;;;9.20;1.40;;;12.70;99.90;;;;;;5106065;28;20024;-51
2024/02/26 10:14:47;;;;;;;2.97;1.20;;;11.60;99.90;;;;;;5087664;28;20028;-48
2024/02/26 10:17:13;;;;;;;6.28;1.10;;;11.00;99.90;;;;;;5105882;28;20039;-51
2024/02/26 10:19:39;;;;;;;6.15;1.15;;;10.80;99.90;;;;;;5105311;28;20036;-47
2024/02/26 10:22:04;;;;;;;4.18;1.50;;;10.20;99.90;;;;;;5105558;28;20020;-48
2024/02/26 10:24:30;;;;;;;3.92;1.17;;;11.90;99.90;;;;;;5105748;28;20042;-50
2024/02/26 10:26:56;;;;;;;3.53;1.05;;;13.10;99.90;;;;;;5105613;28;20028;-50
2024/02/26 10:29:23;;;;;;;2.85;1.00;;;13.80;99.90;;;;;;5104213;28;20027;-49
2024/02/26 10:31:48;;;;;;;15.43;5.55;;;14.10;99.90;;;;;;5104189;28;20039;-49
2024/02/26 10:34:18;;;;;;;2.45;1.02;;;14.50;99.90;;;;;;5105596;28;20182;-50
2024/02/26 10:36:43;;;;;;;4.55;1.25;;;14.70;99.90;;;;;;5105264;28;20258;-47
2024/02/26 10:39:09;;;;;;;6.25;1.00;;;14.50;99.90;;;;;;5105718;28;20141;-49
2024/02/26 10:41:35;;;;;;;3.75;1.10;;;14.80;99.90;;;;;;5110929;28;20024;-49
2024/02/26 10:44:01;;;;;;;2.15;1.05;;;15.10;99.90;;;;;;5112226;28;20019;-53
2024/02/26 10:46:27;;;;;;;3.80;1.25;;;15.00;99.90;;;;;;5111724;28;20228;-52
2024/02/26 10:48:53;;;;;;;7.15;1.02;;;15.00;99.90;;;;;;5111547;28;20060;-53
2024/02/26 10:51:24;;;;;;;4.50;0.80;;;15.20;99.90;;;;;;5111672;28;20080;-52
2024/02/26 10:53:51;;;;;;;5.93;1.63;;;15.50;99.90;;;;;;5111042;28;20060;-53
2024/02/26 10:56:16;;;;;;;1.85;0.95;;;15.00;99.90;;;;;;5110763;28;20028;-53
2024/02/26 10:58:42;;;;;;;3.13;1.05;;;15.50;99.90;;;;;;5111951;28;20038;-53
2024/02/26 11:01:08;;;;;;;1.65;0.90;;;16.00;99.90;;;;;;5111021;28;20032;-53
2024/02/26 11:03:34;;;;;;;4.20;0.95;;;15.00;99.90;;;;;;5111149;28;20023;-53
2024/02/26 11:06:00;;;;;;;2.08;0.90;;;13.00;99.90;;;;;;5111929;28;20189;-53
2024/02/26 11:08:26;;;;;;;3.00;1.33;;;12.10;99.90;;;;;;5111166;28;20089;-53
2024/02/26 11:10:53;;;;;;;5.32;1.40;;;11.70;99.90;;;;;;5111655;28;20028;-53
2024/02/26 11:13:19;;;;;;;3.47;1.10;;;12.20;99.90;;;;;;5111659;28;20077;-52
2024/02/26 11:15:47;;;;;;;4.05;1.10;;;12.20;99.90;;;;;;5111583;28;20028;-53
2024/02/26 11:18:13;;;;;;;2.63;1.00;;;13.50;99.90;;;;;;5112010;28;20020;-54
2024/02/26 11:20:39;;;;;;;3.05;0.90;;;13.60;99.90;;;;;;5093860;28;20016;-53
2024/02/26 11:23:05;;;;;;;2.08;0.93;;;13.20;99.90;;;;;;5110515;28;20315;-53
2024/02/26 11:25:30;;;;;;;1.83;0.85;;;13.40;99.90;;;;;;5110771;28;20024;-53
2024/02/26 11:28:01;;;;;;;1.73;0.80;;;13.50;99.90;;;;;;5110936;28;20024;-52
2024/02/26 11:30:28;;;;;;;5.15;1.50;;;13.20;99.90;;;;;;5110635;28;20179;-53
2024/02/26 11:32:54;;;;;;;3.15;1.02;;;12.10;99.90;;;;;;5093673;28;20020;-53
2024/02/26 11:35:20;;;;;;;5.03;1.60;;;12.20;99.90;;;;;;5111702;28;20291;-52
2024/02/26 11:37:56;;;;;;;3.88;0.90;;;12.20;99.90;;;;;;5111429;28;20391;-53
2024/02/26 11:40:28;;;;;;;3.58;0.80;;;11.30;99.90;;;;;;5111684;28;20035;-52
2024/02/26 11:42:54;;;;;;;4.90;2.10;;;11.10;99.90;;;;;;5111144;28;20046;-51
2024/02/26 11:45:48;;;;;;;2.78;0.98;;;11.10;99.90;;;;;;5111219;28;20028;-53
2024/02/26 11:48:14;;;;;;;2.38;1.10;;;11.60;99.90;;;;;;5111171;28;20092;-53
2024/02/26 11:50:47;;;;;;;7.25;5.15;;;12.40;99.90;;;;;;5110986;28;20295;-52
2024/02/26 11:53:30;;;;;;;3.25;1.25;;;13.50;99.90;;;;;;5107262;28;20171;-53
2024/02/26 11:56:22;;;;;;;2.22;1.00;;;13.60;99.90;;;;;;5107901;28;20270;-53
2024/02/26 11:58:49;;;;;;;2.53;1.00;;;14.90;99.90;;;;;;5107755;28;20032;-53
2024/02/26 12:01:44;;;;;;;3.00;1.00;;;14.90;99.90;;;;;;5108018;28;20020;-53
2024/02/26 12:04:17;;;;;;;5.47;3.03;;;15.70;99.90;;;;;;5108117;28;20031;-52
2024/02/26 12:06:51;;;;;;;2.83;0.90;;;16.70;99.90;;;;;;5107968;28;20036;-49
2024/02/26 12:09:37;;;;;;;3.00;0.90;;;16.00;99.90;;;;;;5108228;28;20089;-49
2024/02/26 12:12:04;;;;;;;2.85;1.20;;;15.80;99.90;;;;;;5089512;28;20027;-49
2024/02/26 12:14:29;;;;;;;6.57;1.25;;;15.20;99.90;;;;;;5107822;28;20032;-49
2024/02/26 12:16:56;;;;;;;2.30;0.90;;;14.20;99.90;;;;;;5107583;28;20031;-49
2024/02/26 12:19:21;;;;;;;5.72;0.98;;;13.00;99.90;;;;;;5107448;28;20024;-49
2024/02/26 12:21:51;;;;;;;1.15;0.60;;;12.30;99.90;;;;;;5107639;28;20047;-49
2024/02/26 12:24:17;;;;;;;2.63;0.80;;;11.80;99.90;;;;;;5107603;28;20114;-47
2024/02/26 12:26:43;;;;;;;2.60;1.20;;;11.90;99.90;;;;;;5089666;28;20036;-47
2024/02/26 12:29:09;;;;;;;2.22;0.90;;;11.90;99.90;;;;;;5107032;28;20074;-48
2024/02/26 12:31:36;;;;;;;4.07;1.00;;;12.00;99.90;;;;;;5105962;28;20032;-50
2024/02/26 12:34:03;;;;;;;2.97;1.10;;;13.30;99.90;;;;;;5089331;28;20031;-47
2024/02/26 12:36:29;;;;;;;5.13;2.55;;;14.70;99.90;;;;;;5089264;28;20028;-50
2024/02/26 12:38:54;;;;;;;3.53;0.93;;;15.90;99.90;;;;;;5107232;28;20028;-49
2024/02/26 12:41:20;;;;;;;4.10;1.10;;;16.00;99.90;;;;;;5107255;28;20026;-49
2024/02/26 12:43:46;;;;;;;1.85;0.80;;;16.50;99.90;;;;;;5105821;28;20032;-46
2024/02/26 12:46:13;;;;;;;4.72;1.42;;;16.40;99.90;;;;;;5107175;28;20139;-49
2024/02/26 12:48:39;;;;;;;3.80;0.80;;;16.30;99.90;;;;;;5106896;28;20028;-47
2024/02/26 12:51:05;;;;;;;5.05;1.02;;;14.90;99.90;;;;;;5106732;28;20028;-49